createdAt,value
2023-05-09T00:00:11.283Z,16.97
2023-05-09T00:02:39.959Z,16.97
2023-05-09T00:05:10.173Z,20.23
2023-05-09T00:07:40.339Z,19.47
2023-05-09T00:10:09.764Z,19.10
2023-05-09T00:12:38.348Z,20.63
2023-05-09T00:15:08.518Z,19.47
2023-05-09T00:17:38.789Z,19.97
2023-05-09T00:20:12.528Z,18.90
2023-05-09T00:22:42.898Z,19.23
2023-05-09T00:25:12.942Z,19.77
2023-05-09T00:27:41.756Z,19.70
2023-05-09T00:30:10.980Z,20.13
2023-05-09T00:32:40.449Z,18.63
2023-05-09T00:35:10.371Z,20.93
2023-05-09T00:37:39.121Z,18.10
2023-05-09T00:40:10.454Z,21.60
2023-05-09T00:42:39.106Z,23.90
2023-05-09T00:45:08.938Z,27.57
2023-05-09T00:47:37.571Z,23.33
2023-05-09T00:50:07.648Z,20.80
2023-05-09T00:52:36.335Z,23.60
2023-05-09T00:55:05.633Z,20.17
2023-05-09T00:57:35.728Z,24.50
2023-05-09T01:00:05.474Z,25.30
2023-05-09T01:02:34.123Z,22.17
2023-05-09T01:05:02.825Z,22.07
2023-05-09T01:07:36.858Z,20.73
2023-05-09T01:10:13.056Z,21.20
2023-05-09T01:12:48.869Z,22.60
2023-05-09T01:15:25.821Z,22.17
2023-05-09T01:18:02.609Z,22.40
2023-05-09T01:20:37.121Z,22.60
2023-05-09T01:23:36.344Z,20.77
2023-05-09T01:26:06.801Z,25.53
2023-05-09T01:29:07.740Z,20.00
2023-05-09T01:31:42.156Z,22.23
2023-05-09T01:34:12.895Z,22.40
2023-05-09T01:36:43.752Z,20.63
2023-05-09T01:39:14.650Z,22.87
2023-05-09T01:41:43.207Z,19.23
2023-05-09T01:44:13.812Z,21.73
2023-05-09T01:46:45.786Z,19.70
2023-05-09T01:49:15.363Z,21.47
2023-05-09T01:51:45.518Z,17.57
2023-05-09T01:54:14.951Z,19.80
2023-05-09T01:56:44.677Z,20.53
2023-05-09T01:59:16.500Z,23.77
2023-05-09T02:01:48.248Z,20.83
2023-05-09T02:04:18.619Z,21.63
2023-05-09T02:06:51.463Z,21.13
2023-05-09T02:09:20.885Z,23.30
2023-05-09T02:11:49.538Z,21.23
2023-05-09T02:14:18.785Z,24.03
2023-05-09T02:16:49.077Z,22.90
2023-05-09T02:19:17.940Z,20.13
2023-05-09T02:21:46.509Z,19.37
2023-05-09T02:24:15.403Z,20.43
2023-05-09T02:26:44.768Z,21.07
2023-05-09T02:29:13.809Z,22.17
2023-05-09T02:31:43.994Z,20.13
2023-05-09T02:34:14.903Z,19.60
2023-05-09T02:36:43.579Z,19.87
2023-05-09T02:39:12.588Z,20.50
2023-05-09T02:41:41.137Z,18.67
2023-05-09T02:44:09.753Z,20.57
2023-05-09T02:46:38.329Z,18.50
2023-05-09T02:49:06.824Z,19.63
2023-05-09T02:51:36.853Z,18.80
2023-05-09T02:54:06.552Z,20.77
2023-05-09T02:56:35.049Z,21.33
2023-05-09T02:59:03.526Z,20.60
2023-05-09T03:01:32.314Z,21.13
2023-05-09T03:04:00.957Z,21.80
2023-05-09T03:06:29.508Z,20.40
2023-05-09T03:08:59.598Z,23.57
2023-05-09T03:11:28.144Z,20.77
2023-05-09T03:13:56.760Z,21.67
2023-05-09T03:16:25.371Z,19.50
2023-05-09T03:18:53.933Z,18.60
2023-05-09T03:21:22.659Z,22.63
2023-05-09T03:23:51.280Z,22.97
2023-05-09T03:26:21.918Z,19.13
2023-05-09T03:28:50.428Z,23.77
2023-05-09T03:31:19.192Z,48.53
2023-05-09T03:33:48.429Z,48.60
2023-05-09T03:36:17.540Z,28.30
2023-05-09T03:38:46.254Z,22.17
2023-05-09T03:41:17.790Z,19.67
2023-05-09T03:43:47.909Z,18.48
2023-05-09T03:46:16.474Z,17.70
2023-05-09T03:48:45.043Z,19.10
2023-05-09T03:51:13.715Z,18.73
2023-05-09T03:53:42.499Z,21.73
2023-05-09T03:56:11.060Z,17.30
2023-05-09T03:58:39.616Z,21.53
2023-05-09T04:01:09.566Z,22.53
2023-05-09T04:03:38.514Z,19.27
2023-05-09T04:06:07.722Z,18.57
2023-05-09T04:08:36.268Z,18.37
2023-05-09T04:11:04.765Z,21.40
2023-05-09T04:13:33.434Z,17.35
2023-05-09T04:16:02.015Z,20.58
2023-05-09T04:18:32.172Z,16.83
2023-05-09T04:21:02.682Z,20.87
2023-05-09T04:23:31.293Z,17.10
2023-05-09T04:26:00.226Z,22.50
2023-05-09T04:28:28.839Z,17.80
2023-05-09T04:30:57.670Z,18.17
2023-05-09T04:33:26.274Z,23.80
2023-05-09T04:35:56.307Z,16.67
2023-05-09T04:38:25.006Z,22.20
2023-05-09T04:40:53.800Z,16.97
2023-05-09T04:43:24.514Z,16.77
2023-05-09T04:46:36.220Z,19.47
2023-05-09T04:49:04.908Z,20.07
2023-05-09T04:51:35.482Z,15.63
2023-05-09T04:54:05.016Z,15.30
2023-05-09T04:56:33.724Z,20.70
2023-05-09T04:59:02.422Z,19.93
2023-05-09T05:01:31.341Z,21.67
2023-05-09T05:04:00.537Z,21.23
2023-05-09T05:06:29.102Z,23.57
2023-05-09T05:09:02.913Z,22.25
2023-05-09T05:11:31.641Z,19.50
2023-05-09T05:14:00.617Z,17.90
2023-05-09T05:16:29.290Z,16.33
2023-05-09T05:18:57.962Z,20.33
2023-05-09T05:21:26.540Z,20.60
2023-05-09T05:23:55.184Z,18.57
2023-05-09T05:26:25.791Z,16.03
2023-05-09T05:28:56.746Z,14.73
2023-05-09T05:31:25.520Z,17.43
2023-05-09T05:33:54.183Z,17.07
2023-05-09T05:36:22.806Z,17.17
2023-05-09T05:38:51.760Z,17.57
2023-05-09T05:41:20.417Z,17.43
2023-05-09T05:43:51.521Z,17.40
2023-05-09T05:46:22.173Z,21.57
2023-05-09T05:48:50.893Z,16.30
2023-05-09T05:51:19.411Z,17.60
2023-05-09T05:53:47.941Z,16.23
2023-05-09T05:56:16.413Z,16.77
2023-05-09T05:58:44.944Z,17.80
2023-05-09T06:01:15.395Z,16.40
2023-05-09T06:03:44.089Z,16.47
2023-05-09T06:06:12.966Z,12.87
2023-05-09T06:08:41.480Z,12.15
2023-05-09T06:11:10.017Z,12.97
2023-05-09T06:13:38.568Z,12.93
2023-05-09T06:16:17.951Z,11.90
2023-05-09T06:18:49.122Z,12.20
2023-05-09T06:21:17.944Z,11.83
2023-05-09T06:24:04.345Z,13.60
2023-05-09T06:26:35.123Z,15.20
2023-05-09T06:29:06.288Z,10.23
2023-05-09T06:31:38.665Z,9.10
2023-05-09T06:34:09.336Z,9.97
2023-05-09T06:36:38.165Z,11.17
2023-05-09T06:39:07.684Z,9.43
2023-05-09T06:41:36.269Z,11.47
2023-05-09T06:44:05.056Z,7.63
2023-05-09T06:46:33.924Z,5.07
2023-05-09T06:49:03.132Z,12.97
2023-05-09T06:51:33.452Z,5.50
2023-05-09T06:54:02.168Z,4.63
2023-05-09T06:56:31.511Z,6.33
2023-05-09T06:59:00.165Z,5.70
2023-05-09T07:01:28.782Z,3.13
2023-05-09T07:03:58.449Z,6.33
2023-05-09T07:06:27.070Z,3.30
2023-05-09T07:08:57.638Z,4.53
2023-05-09T07:11:26.693Z,3.20
2023-05-09T07:13:55.376Z,2.40
2023-05-09T07:16:24.191Z,2.22
2023-05-09T07:18:52.830Z,4.18
2023-05-09T07:21:21.366Z,5.03
2023-05-09T07:23:50.137Z,3.07
2023-05-09T07:26:20.083Z,3.63
2023-05-09T07:28:48.719Z,2.87
2023-05-09T07:31:17.306Z,5.45
2023-05-09T07:33:45.996Z,5.55
2023-05-09T07:36:16.484Z,7.20
2023-05-09T07:38:52.929Z,3.08
2023-05-09T07:41:22.928Z,3.92
2023-05-09T07:43:51.612Z,2.92
2023-05-09T07:46:20.311Z,2.17
2023-05-09T07:48:49.171Z,2.63
2023-05-09T07:51:17.781Z,5.25
2023-05-09T07:53:46.333Z,4.30
2023-05-09T07:56:14.904Z,2.30
2023-05-09T07:58:44.967Z,4.13
2023-05-09T08:01:13.512Z,4.35
2023-05-09T08:03:42.203Z,4.45
2023-05-09T08:06:11.085Z,4.88
2023-05-09T08:08:45.379Z,2.22
2023-05-09T08:11:14.033Z,2.95
2023-05-09T08:13:42.653Z,5.10
2023-05-09T08:16:12.876Z,5.50
2023-05-09T08:18:41.635Z,5.03
2023-05-09T08:21:10.365Z,3.55
2023-05-09T08:23:39.291Z,2.30
2023-05-09T08:26:08.355Z,3.90
2023-05-09T08:28:37.043Z,4.70
2023-05-09T08:31:05.953Z,3.78
2023-05-09T08:33:36.118Z,4.13
2023-05-09T08:36:05.186Z,2.67
2023-05-09T08:38:33.777Z,2.83
2023-05-09T08:41:03.283Z,2.72
2023-05-09T08:43:34.522Z,3.50
2023-05-09T08:46:08.379Z,2.40
2023-05-09T08:48:41.529Z,6.50
2023-05-09T08:51:13.556Z,2.90
2023-05-09T08:53:44.960Z,5.43
2023-05-09T08:56:18.752Z,3.63
2023-05-09T08:58:50.288Z,7.97
2023-05-09T09:01:25.444Z,4.20
2023-05-09T09:03:58.670Z,2.10
2023-05-09T09:06:31.077Z,3.38
2023-05-09T09:09:10.806Z,4.18
2023-05-09T09:11:43.647Z,2.33
2023-05-09T09:14:18.570Z,2.88
2023-05-09T09:16:51.720Z,3.47
2023-05-09T09:19:44.259Z,13.63
2023-05-09T09:22:24.352Z,1.88
2023-05-09T09:24:56.189Z,4.05
2023-05-09T09:27:25.121Z,2.17
2023-05-09T09:29:54.246Z,4.20
2023-05-09T09:32:34.315Z,3.47
2023-05-09T10:04:48.393Z,4.30
2023-05-09T10:07:17.122Z,2.17
2023-05-09T10:09:45.773Z,3.40
2023-05-09T10:12:18.132Z,9.18
2023-05-09T10:14:47.365Z,6.75
2023-05-09T10:17:16.766Z,3.80
2023-05-09T10:19:48.977Z,5.72
2023-05-09T10:22:19.461Z,3.67
2023-05-09T10:24:52.669Z,7.05
2023-05-09T10:27:24.209Z,3.25
2023-05-09T10:29:58.801Z,5.25
2023-05-09T10:32:33.178Z,2.30
2023-05-09T10:35:08.283Z,2.33
2023-05-09T10:37:38.136Z,2.78
2023-05-09T10:40:10.030Z,2.47
2023-05-09T10:42:38.904Z,2.60
2023-05-09T10:45:09.748Z,3.33
2023-05-09T10:47:40.221Z,2.65
2023-05-09T10:50:12.657Z,4.72
2023-05-09T10:53:08.978Z,3.10
2023-05-09T10:55:39.159Z,2.90
2023-05-09T10:58:26.706Z,3.47
2023-05-09T11:00:58.276Z,7.93
2023-05-09T11:03:28.394Z,5.28
2023-05-09T11:06:00.447Z,3.70
2023-05-09T11:08:30.374Z,3.17
2023-05-09T11:11:01.143Z,4.38
2023-05-09T11:13:33.642Z,2.72
2023-05-09T11:16:12.820Z,2.92
2023-05-09T11:18:54.884Z,3.53
2023-05-09T11:21:25.108Z,4.93
2023-05-09T11:23:55.269Z,6.38
2023-05-09T11:26:30.068Z,2.33
2023-05-09T11:29:02.989Z,2.03
2023-05-09T11:31:31.727Z,2.38
2023-05-09T11:34:05.107Z,15.13
2023-05-09T11:36:35.837Z,8.10
2023-05-09T11:39:07.351Z,2.65
2023-05-09T11:41:44.048Z,2.40
2023-05-09T11:44:18.056Z,2.30
2023-05-09T11:46:47.374Z,3.58
2023-05-09T11:49:17.240Z,2.70
2023-05-09T11:51:47.293Z,3.03
2023-05-09T11:54:15.882Z,5.00
2023-05-09T11:56:44.534Z,3.08
2023-05-09T11:59:14.882Z,2.55
2023-05-09T12:01:44.003Z,2.30
2023-05-09T12:04:13.176Z,3.83
2023-05-09T12:06:43.271Z,4.15
2023-05-09T12:09:14.997Z,3.70
2023-05-09T12:11:50.397Z,4.75
2023-05-09T12:14:29.385Z,4.82
2023-05-09T12:16:58.340Z,5.70
2023-05-09T12:19:28.134Z,3.53
2023-05-09T12:21:58.173Z,3.35
2023-05-09T12:24:28.850Z,2.92
2023-05-09T12:26:58.856Z,4.13
2023-05-09T12:29:28.404Z,7.95
2023-05-09T12:31:57.626Z,2.65
2023-05-09T12:34:28.912Z,2.95
2023-05-09T12:37:00.238Z,10.23
2023-05-09T12:39:30.503Z,3.92
2023-05-09T12:42:02.044Z,4.03
2023-05-09T12:44:31.048Z,5.50
2023-05-09T12:47:01.055Z,3.40
2023-05-09T12:49:30.512Z,9.02
2023-05-09T12:52:04.402Z,2.88
2023-05-09T12:54:35.630Z,4.70
2023-05-09T12:57:05.903Z,2.35
2023-05-09T12:59:34.667Z,2.38
2023-05-09T13:02:03.336Z,2.45
2023-05-09T13:04:32.099Z,3.58
2023-05-09T13:07:00.892Z,6.82
2023-05-09T13:09:30.001Z,3.42
2023-05-09T13:12:00.541Z,3.75
2023-05-09T13:14:29.249Z,2.25
2023-05-09T13:16:58.066Z,2.67
2023-05-09T13:19:28.676Z,2.17
2023-05-09T13:21:58.332Z,3.65
2023-05-09T13:24:26.941Z,6.33
2023-05-09T13:26:55.511Z,11.48
2023-05-09T13:29:25.533Z,3.92
2023-05-09T13:31:54.195Z,2.92
2023-05-09T13:34:22.819Z,2.58
2023-05-09T13:36:51.433Z,2.58
2023-05-09T13:39:20.035Z,3.83
2023-05-09T13:41:48.920Z,5.95
2023-05-09T13:44:17.494Z,2.78
2023-05-09T13:46:47.733Z,3.60
2023-05-09T13:49:16.455Z,2.92
2023-05-09T13:51:45.590Z,2.22
2023-05-09T13:54:14.932Z,2.13
2023-05-09T13:56:44.374Z,2.10
2023-05-09T13:59:13.342Z,2.40
2023-05-09T14:01:42.147Z,2.80
2023-05-09T14:04:12.195Z,3.47
2023-05-09T14:06:40.743Z,2.20
2023-05-09T14:09:09.668Z,2.40
2023-05-09T14:11:38.439Z,2.28
2023-05-09T14:14:07.033Z,2.22
2023-05-09T14:16:35.756Z,3.17
2023-05-09T14:19:04.430Z,3.13
2023-05-09T14:21:34.538Z,2.40
2023-05-09T14:24:03.152Z,3.15
2023-05-09T14:26:31.748Z,4.25
2023-05-09T14:29:00.535Z,5.68
2023-05-09T14:31:29.343Z,4.50
2023-05-09T14:33:58.104Z,3.85
2023-05-09T14:36:27.129Z,2.20
2023-05-09T14:38:57.084Z,3.67
2023-05-09T14:41:25.737Z,7.90
2023-05-09T14:43:54.287Z,2.80
2023-05-09T14:46:24.964Z,3.05
2023-05-09T14:48:54.008Z,2.85
2023-05-09T14:51:22.521Z,2.88
2023-05-09T14:53:53.520Z,2.90
2023-05-09T14:56:25.015Z,3.15
2023-05-09T14:58:53.561Z,3.78
2023-05-09T15:01:23.733Z,2.63
2023-05-09T15:03:52.310Z,2.40
2023-05-09T15:06:20.918Z,4.30
2023-05-09T15:08:49.484Z,4.88
2023-05-09T15:11:18.190Z,3.30
2023-05-09T15:13:48.296Z,3.47
2023-05-09T15:16:17.181Z,2.17
2023-05-09T15:18:46.873Z,2.72
2023-05-09T15:21:15.526Z,3.15
2023-05-09T15:23:44.682Z,2.60
2023-05-09T15:26:13.662Z,3.35
2023-05-09T15:28:44.501Z,3.40
2023-05-09T15:31:14.637Z,4.65
2023-05-09T15:33:43.349Z,3.00
2023-05-09T15:36:11.971Z,2.80
2023-05-09T15:38:40.821Z,2.58
2023-05-09T15:41:09.575Z,2.53
2023-05-09T15:43:38.322Z,4.80
2023-05-09T15:46:07.627Z,2.28
2023-05-09T15:48:37.787Z,2.78
2023-05-09T15:51:06.781Z,3.45
2023-05-09T15:53:35.323Z,2.88
2023-05-09T15:56:04.613Z,3.53
2023-05-09T15:58:39.132Z,5.03
2023-05-09T16:01:08.387Z,2.53
2023-05-09T16:03:38.492Z,3.80
2023-05-09T16:06:07.711Z,2.55
2023-05-09T16:08:36.499Z,4.90
2023-05-09T16:11:05.848Z,4.20
2023-05-09T16:13:35.883Z,4.10
2023-05-09T16:16:05.445Z,3.92
2023-05-09T16:18:34.100Z,2.67
2023-05-09T16:21:04.374Z,3.05
2023-05-09T16:23:33.180Z,4.05
2023-05-09T16:26:01.957Z,2.50
2023-05-09T16:28:30.500Z,3.25
2023-05-09T16:31:00.272Z,5.20
2023-05-09T16:33:29.508Z,2.72
2023-05-09T16:35:59.060Z,3.05
2023-05-09T16:38:29.174Z,2.63
2023-05-09T16:40:57.795Z,3.05
2023-05-09T16:43:26.718Z,6.18
2023-05-09T16:45:55.607Z,4.78
2023-05-09T16:48:24.382Z,6.47
2023-05-09T16:50:53.988Z,2.75
2023-05-09T16:53:24.495Z,3.22
2023-05-09T16:55:56.042Z,3.42
2023-05-09T16:58:25.390Z,2.97
2023-05-09T17:00:55.387Z,3.63
2023-05-09T17:03:24.214Z,4.13
2023-05-09T17:05:52.913Z,2.27
2023-05-09T17:08:21.661Z,2.50
2023-05-09T17:10:50.256Z,5.30
2023-05-09T17:13:20.375Z,6.30
2023-05-09T17:15:49.211Z,3.47
2023-05-09T17:18:29.085Z,2.80
2023-05-09T17:21:05.103Z,3.08
2023-05-09T17:23:33.896Z,3.65
2023-05-09T17:26:02.657Z,3.13
2023-05-09T17:28:32.657Z,3.70
2023-05-09T17:31:01.893Z,4.80
2023-05-09T17:33:30.689Z,4.10
2023-05-09T17:36:01.455Z,6.25
2023-05-09T17:38:30.299Z,4.50
2023-05-09T17:40:58.839Z,5.80
2023-05-09T17:43:28.578Z,6.95
2023-05-09T17:45:58.619Z,8.52
2023-05-09T17:48:27.216Z,10.43
2023-05-09T17:50:55.994Z,6.82
2023-05-09T17:53:24.733Z,4.22
2023-05-09T17:55:53.283Z,6.20
2023-05-09T17:58:23.459Z,6.78
2023-05-09T18:00:55.263Z,5.72
2023-05-09T18:03:25.711Z,4.97
2023-05-09T18:05:54.712Z,7.75
2023-05-09T18:08:23.465Z,4.28
2023-05-09T18:10:54.717Z,4.00
2023-05-09T18:13:26.787Z,6.07
2023-05-09T18:15:59.750Z,4.78
2023-05-09T18:18:33.438Z,3.35
2023-05-09T18:21:02.472Z,6.55
2023-05-09T18:23:31.050Z,5.10
2023-05-09T18:25:59.918Z,9.10
2023-05-09T18:28:29.073Z,4.75
2023-05-09T18:31:00.452Z,5.75
2023-05-09T18:33:30.876Z,3.83
2023-05-09T18:35:59.789Z,6.78
2023-05-09T18:38:28.695Z,3.42
2023-05-09T18:40:57.465Z,5.95
2023-05-09T18:43:26.086Z,5.00
2023-05-09T18:45:55.219Z,4.10
2023-05-09T18:48:23.792Z,4.57
2023-05-09T18:50:53.943Z,5.63
2023-05-09T18:53:22.804Z,6.57
2023-05-09T18:55:51.704Z,4.53
2023-05-09T18:58:21.551Z,4.90
2023-05-09T19:00:50.355Z,6.10
2023-05-09T19:03:19.068Z,4.40
2023-05-09T19:05:47.792Z,6.83
2023-05-09T19:08:17.825Z,3.87
2023-05-09T19:10:46.517Z,9.50
2023-05-09T19:13:16.562Z,6.03
2023-05-09T19:15:45.523Z,4.47
2023-05-09T19:18:14.512Z,7.20
2023-05-09T19:20:46.458Z,7.27
2023-05-09T19:23:16.840Z,7.50
2023-05-09T19:25:45.828Z,11.07
2023-05-09T19:28:14.843Z,4.60
2023-05-09T19:30:43.566Z,4.83
2023-05-09T19:33:12.714Z,5.90
2023-05-09T19:35:42.674Z,8.90
2023-05-09T19:38:12.524Z,4.47
2023-05-09T19:40:43.183Z,6.60
2023-05-09T19:43:11.966Z,10.90
2023-05-09T19:45:40.823Z,7.03
2023-05-09T19:48:15.014Z,6.17
2023-05-09T19:50:44.246Z,9.37
2023-05-09T19:53:13.000Z,6.47
2023-05-09T19:55:46.992Z,9.67
2023-05-09T19:58:17.752Z,7.80
2023-05-09T20:00:46.796Z,8.03
2023-05-09T20:03:15.874Z,7.73
2023-05-09T20:08:30.278Z,9.73
2023-05-09T20:11:00.777Z,11.03
2023-05-09T20:13:29.307Z,8.60
2023-05-09T20:15:59.214Z,9.27
2023-05-09T20:18:28.593Z,9.17
2023-05-09T20:20:59.670Z,8.80
2023-05-09T20:23:29.173Z,8.23
2023-05-09T20:25:59.190Z,9.10
2023-05-09T20:28:27.787Z,9.47
2023-05-09T20:31:36.505Z,10.10
2023-05-09T20:34:05.290Z,9.50
2023-05-09T20:36:33.768Z,9.60
2023-05-09T20:39:02.473Z,8.90
2023-05-09T20:41:34.997Z,7.97
2023-05-09T20:44:04.787Z,9.47
2023-05-09T20:46:34.544Z,9.53
2023-05-09T20:49:04.275Z,9.23
2023-05-09T20:51:32.946Z,9.00
2023-05-09T20:54:01.931Z,7.10
2023-05-09T20:56:33.426Z,8.70
2023-05-09T20:59:03.974Z,8.27
2023-05-09T21:01:35.635Z,7.27
2023-05-09T21:04:06.013Z,7.53
2023-05-09T21:06:34.530Z,8.23
2023-05-09T21:09:03.335Z,8.60
2023-05-09T21:11:33.295Z,11.07
2023-05-09T21:14:01.854Z,7.43
2023-05-09T21:16:30.609Z,9.37
2023-05-09T21:19:02.575Z,10.23
2023-05-09T21:21:31.638Z,8.13
2023-05-09T21:24:03.318Z,10.27
2023-05-09T21:26:33.657Z,7.33
2023-05-09T21:29:04.507Z,7.97
2023-05-09T21:31:33.035Z,9.10
2023-05-09T21:34:01.826Z,8.47
2023-05-09T21:36:30.268Z,15.40
2023-05-09T21:38:58.754Z,7.97
2023-05-09T21:41:27.936Z,9.97
2023-05-09T21:43:57.900Z,7.97
2023-05-09T21:46:26.639Z,7.30
2023-05-09T21:48:55.216Z,10.97
2023-05-09T21:51:23.647Z,8.07
2023-05-09T21:53:52.112Z,10.77
2023-05-09T21:56:20.887Z,12.87
2023-05-09T21:58:49.347Z,8.10
2023-05-09T22:01:20.441Z,12.33
2023-05-09T22:03:49.146Z,10.83
2023-05-09T22:06:18.308Z,10.77
2023-05-09T22:08:47.077Z,8.70
2023-05-09T22:11:16.191Z,12.93
2023-05-09T22:13:44.652Z,8.53
2023-05-09T22:16:13.484Z,8.10
2023-05-09T22:18:43.525Z,11.30
2023-05-09T22:21:12.011Z,10.93
2023-05-09T22:23:40.555Z,14.10
2023-05-09T22:26:09.223Z,12.20
2023-05-09T22:28:53.533Z,11.03
2023-05-09T22:31:22.080Z,10.33
2023-05-09T22:33:52.430Z,11.47
2023-05-09T22:36:21.892Z,9.97
2023-05-09T22:38:50.439Z,8.07
2023-05-09T22:41:19.043Z,10.03
2023-05-09T22:43:47.591Z,11.00
2023-05-09T22:46:16.250Z,9.73
2023-05-09T22:48:44.788Z,12.63
2023-05-09T22:51:15.248Z,9.40
2023-05-09T22:53:43.732Z,10.90
2023-05-09T22:56:12.936Z,12.47
2023-05-09T22:58:41.720Z,9.90
2023-05-09T23:01:10.398Z,8.63
2023-05-09T23:03:38.974Z,8.57
2023-05-09T23:06:08.334Z,10.47
2023-05-09T23:08:38.338Z,7.97
2023-05-09T23:11:07.352Z,9.40
2023-05-09T23:13:36.082Z,9.30
2023-05-09T23:16:04.811Z,10.90
2023-05-09T23:18:33.409Z,8.13
2023-05-09T23:21:01.958Z,11.13
2023-05-09T23:23:30.439Z,9.67
2023-05-09T23:26:00.519Z,9.73
2023-05-09T23:28:29.073Z,10.10
2023-05-09T23:30:57.883Z,11.67
2023-05-09T23:33:26.649Z,8.87
2023-05-09T23:35:55.982Z,7.67
2023-05-09T23:38:24.479Z,8.13
2023-05-09T23:40:56.470Z,10.33
2023-05-09T23:43:26.409Z,8.87
2023-05-09T23:45:55.568Z,9.33
2023-05-09T23:48:24.455Z,10.30
2023-05-09T23:50:53.027Z,13.70
2023-05-09T23:53:21.586Z,8.63
2023-05-09T23:55:50.312Z,7.93
2023-05-09T23:58:18.802Z,8.30
